Terminal Aerodrome Forecast
Issued by NWS Paducah, KY

Home | Current Version | Previous Version | Text Only | Print | Product List | Glossary On
Versions: 1 2 3 4 5 6 7 8 9 10 11 12
000
FTUS43 KPAH 231720
TAFEVV
TAF
KEVV 231720Z 2318/2418 10010KT P6SM VCSH OVC020
      TEMPO 2318/2321 SCT020 BKN035
     FM232100 09010KT P6SM VCSH OVC035
     FM240100 07005KT P6SM OVC060
      TEMPO 2401/2403 4SM -SHRA OVC025
     FM240300 02005KT P6SM OVC020 PROB30 2409/2415 2SM -RA BR
      OVC004=

USA.gov is the U.S. government's official web portal to all federal, state and local government web resources and services.